sensor_id;sensor_type;location;lat;lon;timestamp;P1;durP1;ratioP1;P2;durP2;ratioP2
7057;SDS011;3570;43.080;25.628;2022-07-29T00:00:00;9.43;;;8.43;;
7057;SDS011;3570;43.080;25.628;2022-07-29T00:02:45;9.47;;;8.57;;
7057;SDS011;3570;43.080;25.628;2022-07-29T00:05:29;9.63;;;8.63;;
7057;SDS011;3570;43.080;25.628;2022-07-29T00:08:14;9.70;;;8.23;;
7057;SDS011;3570;43.080;25.628;2022-07-29T00:10:58;11.67;;;8.30;;
7057;SDS011;3570;43.080;25.628;2022-07-29T00:13:43;10.10;;;8.87;;
7057;SDS011;3570;43.080;25.628;2022-07-29T00:16:27;13.77;;;9.10;;
7057;SDS011;3570;43.080;25.628;2022-07-29T00:19:11;16.40;;;8.00;;
7057;SDS011;3570;43.080;25.628;2022-07-29T00:21:55;8.77;;;7.87;;
7057;SDS011;3570;43.080;25.628;2022-07-29T00:24:39;8.50;;;7.67;;
7057;SDS011;3570;43.080;25.628;2022-07-29T00:27:23;8.27;;;7.43;;
7057;SDS011;3570;43.080;25.628;2022-07-29T00:30:08;8.23;;;6.90;;
7057;SDS011;3570;43.080;25.628;2022-07-29T00:32:53;10.30;;;7.70;;
7057;SDS011;3570;43.080;25.628;2022-07-29T00:35:37;9.77;;;7.83;;
7057;SDS011;3570;43.080;25.628;2022-07-29T00:38:30;9.77;;;7.60;;
7057;SDS011;3570;43.080;25.628;2022-07-29T00:41:14;10.87;;;7.50;;
7057;SDS011;3570;43.080;25.628;2022-07-29T00:43:58;10.03;;;7.77;;
7057;SDS011;3570;43.080;25.628;2022-07-29T00:46:42;12.50;;;7.67;;
7057;SDS011;3570;43.080;25.628;2022-07-29T00:49:26;10.47;;;7.67;;
7057;SDS011;3570;43.080;25.628;2022-07-29T00:52:11;10.17;;;7.37;;
7057;SDS011;3570;43.080;25.628;2022-07-29T00:54:55;13.07;;;7.60;;
7057;SDS011;3570;43.080;25.628;2022-07-29T00:57:41;9.97;;;7.17;;
7057;SDS011;3570;43.080;25.628;2022-07-29T01:00:27;9.73;;;7.43;;
7057;SDS011;3570;43.080;25.628;2022-07-29T01:03:12;10.87;;;7.30;;
7057;SDS011;3570;43.080;25.628;2022-07-29T01:05:56;7.60;;;6.60;;
7057;SDS011;3570;43.080;25.628;2022-07-29T01:08:41;12.00;;;7.83;;
7057;SDS011;3570;43.080;25.628;2022-07-29T01:11:25;9.57;;;7.50;;
7057;SDS011;3570;43.080;25.628;2022-07-29T01:14:10;11.17;;;8.00;;
7057;SDS011;3570;43.080;25.628;2022-07-29T01:16:59;13.87;;;8.50;;
7057;SDS011;3570;43.080;25.628;2022-07-29T01:26:28;10.83;;;8.57;;
7057;SDS011;3570;43.080;25.628;2022-07-29T01:29:36;9.80;;;8.27;;
7057;SDS011;3570;43.080;25.628;2022-07-29T01:32:29;13.20;;;9.47;;
7057;SDS011;3570;43.080;25.628;2022-07-29T01:35:17;13.03;;;9.27;;
7057;SDS011;3570;43.080;25.628;2022-07-29T01:38:10;13.40;;;9.33;;
7057;SDS011;3570;43.080;25.628;2022-07-29T01:41:03;9.97;;;8.97;;
7057;SDS011;3570;43.080;25.628;2022-07-29T01:47:10;10.20;;;7.90;;
7057;SDS011;3570;43.080;25.628;2022-07-29T01:49:58;9.13;;;7.50;;
7057;SDS011;3570;43.080;25.628;2022-07-29T01:52:47;9.93;;;7.37;;
7057;SDS011;3570;43.080;25.628;2022-07-29T01:55:38;9.50;;;7.80;;
7057;SDS011;3570;43.080;25.628;2022-07-29T01:58:25;7.23;;;6.53;;
7057;SDS011;3570;43.080;25.628;2022-07-29T02:01:11;10.30;;;7.27;;
7057;SDS011;3570;43.080;25.628;2022-07-29T02:03:59;9.70;;;7.13;;
7057;SDS011;3570;43.080;25.628;2022-07-29T02:06:47;8.17;;;6.73;;
7057;SDS011;3570;43.080;25.628;2022-07-29T02:09:34;11.57;;;7.60;;
7057;SDS011;3570;43.080;25.628;2022-07-29T02:12:20;8.97;;;7.30;;
7057;SDS011;3570;43.080;25.628;2022-07-29T02:15:06;9.60;;;7.30;;
7057;SDS011;3570;43.080;25.628;2022-07-29T02:18:11;10.53;;;6.97;;
7057;SDS011;3570;43.080;25.628;2022-07-29T02:20:59;7.80;;;7.10;;
7057;SDS011;3570;43.080;25.628;2022-07-29T02:23:44;15.00;;;8.60;;
7057;SDS011;3570;43.080;25.628;2022-07-29T02:26:30;10.53;;;8.83;;
7057;SDS011;3570;43.080;25.628;2022-07-29T02:29:16;9.97;;;8.53;;
7057;SDS011;3570;43.080;25.628;2022-07-29T02:32:02;10.53;;;8.00;;
7057;SDS011;3570;43.080;25.628;2022-07-29T02:34:48;13.03;;;8.90;;
7057;SDS011;3570;43.080;25.628;2022-07-29T02:37:35;11.27;;;7.87;;
7057;SDS011;3570;43.080;25.628;2022-07-29T02:40:20;10.83;;;8.00;;
7057;SDS011;3570;43.080;25.628;2022-07-29T02:43:05;11.57;;;7.50;;
7057;SDS011;3570;43.080;25.628;2022-07-29T02:45:52;10.07;;;6.87;;
7057;SDS011;3570;43.080;25.628;2022-07-29T02:48:41;8.67;;;7.70;;
7057;SDS011;3570;43.080;25.628;2022-07-29T02:51:40;8.97;;;7.13;;
7057;SDS011;3570;43.080;25.628;2022-07-29T03:00:26;7.40;;;6.60;;
7057;SDS011;3570;43.080;25.628;2022-07-29T03:03:12;7.97;;;6.40;;
7057;SDS011;3570;43.080;25.628;2022-07-29T03:05:59;7.67;;;6.70;;
7057;SDS011;3570;43.080;25.628;2022-07-29T03:08:45;7.90;;;6.00;;
7057;SDS011;3570;43.080;25.628;2022-07-29T03:11:31;8.50;;;6.70;;
7057;SDS011;3570;43.080;25.628;2022-07-29T03:14:17;7.97;;;6.23;;
7057;SDS011;3570;43.080;25.628;2022-07-29T03:17:02;8.80;;;7.03;;
7057;SDS011;3570;43.080;25.628;2022-07-29T03:19:47;10.57;;;6.10;;
7057;SDS011;3570;43.080;25.628;2022-07-29T03:22:31;7.17;;;6.47;;
7057;SDS011;3570;43.080;25.628;2022-07-29T03:25:17;7.83;;;6.70;;
7057;SDS011;3570;43.080;25.628;2022-07-29T03:28:03;8.60;;;6.40;;
7057;SDS011;3570;43.080;25.628;2022-07-29T03:30:47;7.00;;;6.27;;
7057;SDS011;3570;43.080;25.628;2022-07-29T03:33:32;7.73;;;5.80;;
7057;SDS011;3570;43.080;25.628;2022-07-29T03:36:16;7.40;;;6.70;;
7057;SDS011;3570;43.080;25.628;2022-07-29T03:39:00;9.23;;;6.63;;
7057;SDS011;3570;43.080;25.628;2022-07-29T03:41:46;8.87;;;7.13;;
7057;SDS011;3570;43.080;25.628;2022-07-29T03:44:33;9.77;;;8.07;;
7057;SDS011;3570;43.080;25.628;2022-07-29T03:47:19;15.63;;;8.37;;
7057;SDS011;3570;43.080;25.628;2022-07-29T03:50:06;10.77;;;8.23;;
7057;SDS011;3570;43.080;25.628;2022-07-29T03:52:52;10.33;;;7.97;;
7057;SDS011;3570;43.080;25.628;2022-07-29T03:55:37;13.70;;;8.10;;
7057;SDS011;3570;43.080;25.628;2022-07-29T03:58:25;10.40;;;6.50;;
7057;SDS011;3570;43.080;25.628;2022-07-29T04:01:11;12.17;;;8.53;;
7057;SDS011;3570;43.080;25.628;2022-07-29T04:03:56;10.53;;;8.23;;
7057;SDS011;3570;43.080;25.628;2022-07-29T04:06:40;11.77;;;7.93;;
7057;SDS011;3570;43.080;25.628;2022-07-29T04:09:26;12.60;;;6.97;;
7057;SDS011;3570;43.080;25.628;2022-07-29T04:12:10;18.20;;;9.20;;
7057;SDS011;3570;43.080;25.628;2022-07-29T04:14:54;9.37;;;6.93;;
7057;SDS011;3570;43.080;25.628;2022-07-29T04:17:38;8.93;;;6.90;;
7057;SDS011;3570;43.080;25.628;2022-07-29T04:20:22;12.73;;;7.13;;
7057;SDS011;3570;43.080;25.628;2022-07-29T04:23:06;11.07;;;6.67;;
7057;SDS011;3570;43.080;25.628;2022-07-29T04:25:50;10.67;;;7.67;;
7057;SDS011;3570;43.080;25.628;2022-07-29T04:28:34;12.20;;;7.67;;
7057;SDS011;3570;43.080;25.628;2022-07-29T04:31:18;8.17;;;7.10;;
7057;SDS011;3570;43.080;25.628;2022-07-29T04:34:02;10.20;;;7.73;;
7057;SDS011;3570;43.080;25.628;2022-07-29T04:36:46;12.47;;;9.50;;
7057;SDS011;3570;43.080;25.628;2022-07-29T04:39:30;13.73;;;8.00;;
7057;SDS011;3570;43.080;25.628;2022-07-29T04:42:14;12.77;;;9.83;;
7057;SDS011;3570;43.080;25.628;2022-07-29T04:44:57;17.30;;;9.67;;
7057;SDS011;3570;43.080;25.628;2022-07-29T04:47:41;17.90;;;11.77;;
7057;SDS011;3570;43.080;25.628;2022-07-29T04:50:25;24.07;;;15.13;;
7057;SDS011;3570;43.080;25.628;2022-07-29T04:53:09;19.53;;;13.20;;
7057;SDS011;3570;43.080;25.628;2022-07-29T04:55:53;22.93;;;15.30;;
7057;SDS011;3570;43.080;25.628;2022-07-29T04:58:37;27.13;;;19.50;;
7057;SDS011;3570;43.080;25.628;2022-07-29T05:01:21;27.50;;;18.90;;
7057;SDS011;3570;43.080;25.628;2022-07-29T05:04:05;50.13;;;35.50;;
7057;SDS011;3570;43.080;25.628;2022-07-29T05:06:49;59.83;;;43.40;;
7057;SDS011;3570;43.080;25.628;2022-07-29T05:09:33;59.03;;;38.27;;
7057;SDS011;3570;43.080;25.628;2022-07-29T05:12:17;46.10;;;33.33;;
7057;SDS011;3570;43.080;25.628;2022-07-29T05:15:01;41.03;;;31.17;;
7057;SDS011;3570;43.080;25.628;2022-07-29T05:17:45;30.70;;;22.87;;
7057;SDS011;3570;43.080;25.628;2022-07-29T05:20:29;24.50;;;16.40;;
7057;SDS011;3570;43.080;25.628;2022-07-29T05:23:14;24.10;;;16.63;;
7057;SDS011;3570;43.080;25.628;2022-07-29T05:25:58;18.83;;;13.50;;
7057;SDS011;3570;43.080;25.628;2022-07-29T05:28:42;15.77;;;12.17;;
7057;SDS011;3570;43.080;25.628;2022-07-29T05:31:25;26.50;;;19.13;;
7057;SDS011;3570;43.080;25.628;2022-07-29T05:34:09;31.77;;;25.43;;
7057;SDS011;3570;43.080;25.628;2022-07-29T05:36:53;26.80;;;20.33;;
7057;SDS011;3570;43.080;25.628;2022-07-29T05:39:37;30.90;;;17.47;;
7057;SDS011;3570;43.080;25.628;2022-07-29T05:42:21;29.70;;;19.23;;
7057;SDS011;3570;43.080;25.628;2022-07-29T05:45:06;29.73;;;19.77;;
7057;SDS011;3570;43.080;25.628;2022-07-29T05:47:50;23.07;;;18.37;;
7057;SDS011;3570;43.080;25.628;2022-07-29T05:50:34;23.47;;;18.37;;
7057;SDS011;3570;43.080;25.628;2022-07-29T05:53:18;16.70;;;14.37;;
7057;SDS011;3570;43.080;25.628;2022-07-29T05:56:03;12.13;;;10.77;;
7057;SDS011;3570;43.080;25.628;2022-07-29T05:58:48;14.47;;;9.43;;
7057;SDS011;3570;43.080;25.628;2022-07-29T06:01:32;13.50;;;8.90;;
7057;SDS011;3570;43.080;25.628;2022-07-29T06:04:16;10.20;;;9.00;;
7057;SDS011;3570;43.080;25.628;2022-07-29T06:07:00;12.97;;;7.17;;
7057;SDS011;3570;43.080;25.628;2022-07-29T06:09:45;17.93;;;9.23;;
7057;SDS011;3570;43.080;25.628;2022-07-29T06:12:29;10.63;;;8.30;;
7057;SDS011;3570;43.080;25.628;2022-07-29T06:15:13;9.27;;;6.87;;
7057;SDS011;3570;43.080;25.628;2022-07-29T06:17:58;11.40;;;5.97;;
7057;SDS011;3570;43.080;25.628;2022-07-29T06:20:42;7.97;;;5.83;;
7057;SDS011;3570;43.080;25.628;2022-07-29T06:23:26;11.97;;;7.30;;
7057;SDS011;3570;43.080;25.628;2022-07-29T06:26:10;6.20;;;5.13;;
7057;SDS011;3570;43.080;25.628;2022-07-29T06:28:54;6.77;;;5.23;;
7057;SDS011;3570;43.080;25.628;2022-07-29T06:31:38;9.37;;;6.23;;
7057;SDS011;3570;43.080;25.628;2022-07-29T06:34:22;7.27;;;6.50;;
7057;SDS011;3570;43.080;25.628;2022-07-29T06:37:07;11.37;;;6.83;;
7057;SDS011;3570;43.080;25.628;2022-07-29T06:39:52;9.47;;;6.10;;
7057;SDS011;3570;43.080;25.628;2022-07-29T06:42:56;11.70;;;5.83;;
7057;SDS011;3570;43.080;25.628;2022-07-29T06:45:40;6.60;;;5.90;;
7057;SDS011;3570;43.080;25.628;2022-07-29T06:48:24;10.20;;;5.50;;
7057;SDS011;3570;43.080;25.628;2022-07-29T06:51:09;9.13;;;5.63;;
7057;SDS011;3570;43.080;25.628;2022-07-29T06:53:54;8.47;;;5.73;;
7057;SDS011;3570;43.080;25.628;2022-07-29T06:56:40;8.97;;;5.80;;
7057;SDS011;3570;43.080;25.628;2022-07-29T06:59:25;6.63;;;5.93;;
7057;SDS011;3570;43.080;25.628;2022-07-29T07:02:09;7.97;;;6.00;;
7057;SDS011;3570;43.080;25.628;2022-07-29T07:04:53;6.53;;;4.80;;
7057;SDS011;3570;43.080;25.628;2022-07-29T07:07:37;6.43;;;4.97;;
7057;SDS011;3570;43.080;25.628;2022-07-29T07:10:21;8.90;;;5.67;;
7057;SDS011;3570;43.080;25.628;2022-07-29T07:13:05;6.30;;;5.20;;
7057;SDS011;3570;43.080;25.628;2022-07-29T07:15:49;10.60;;;5.77;;
7057;SDS011;3570;43.080;25.628;2022-07-29T07:18:34;8.60;;;5.37;;
7057;SDS011;3570;43.080;25.628;2022-07-29T07:21:18;8.37;;;5.27;;
7057;SDS011;3570;43.080;25.628;2022-07-29T07:24:02;5.40;;;4.63;;
7057;SDS011;3570;43.080;25.628;2022-07-29T07:26:47;10.10;;;4.80;;
7057;SDS011;3570;43.080;25.628;2022-07-29T07:29:31;8.95;;;5.20;;
7057;SDS011;3570;43.080;25.628;2022-07-29T07:32:15;5.40;;;4.72;;
7057;SDS011;3570;43.080;25.628;2022-07-29T07:35:00;7.25;;;4.95;;
7057;SDS011;3570;43.080;25.628;2022-07-29T07:37:44;8.80;;;4.78;;
7057;SDS011;3570;43.080;25.628;2022-07-29T07:40:29;5.30;;;4.35;;
7057;SDS011;3570;43.080;25.628;2022-07-29T07:43:13;6.30;;;4.43;;
7057;SDS011;3570;43.080;25.628;2022-07-29T07:45:57;8.63;;;4.38;;
7057;SDS011;3570;43.080;25.628;2022-07-29T07:48:41;5.80;;;4.07;;
7057;SDS011;3570;43.080;25.628;2022-07-29T07:51:25;7.80;;;3.72;;
7057;SDS011;3570;43.080;25.628;2022-07-29T07:54:10;5.55;;;4.57;;
7057;SDS011;3570;43.080;25.628;2022-07-29T07:56:54;4.70;;;4.30;;
7057;SDS011;3570;43.080;25.628;2022-07-29T07:59:39;10.07;;;5.38;;
7057;SDS011;3570;43.080;25.628;2022-07-29T08:02:23;7.30;;;5.03;;
7057;SDS011;3570;43.080;25.628;2022-07-29T08:05:08;6.57;;;4.90;;
7057;SDS011;3570;43.080;25.628;2022-07-29T08:07:53;6.15;;;5.18;;
7057;SDS011;3570;43.080;25.628;2022-07-29T08:10:37;7.07;;;5.50;;
7057;SDS011;3570;43.080;25.628;2022-07-29T08:13:37;5.20;;;4.43;;
7057;SDS011;3570;43.080;25.628;2022-07-29T08:16:22;4.40;;;4.00;;
7057;SDS011;3570;43.080;25.628;2022-07-29T08:19:08;5.57;;;4.05;;
7057;SDS011;3570;43.080;25.628;2022-07-29T08:21:53;6.93;;;4.93;;
7057;SDS011;3570;43.080;25.628;2022-07-29T08:24:37;6.10;;;4.57;;
7057;SDS011;3570;43.080;25.628;2022-07-29T08:27:27;6.00;;;4.10;;
7057;SDS011;3570;43.080;25.628;2022-07-29T08:30:14;9.25;;;4.20;;
7057;SDS011;3570;43.080;25.628;2022-07-29T08:32:58;5.63;;;4.78;;
7057;SDS011;3570;43.080;25.628;2022-07-29T08:35:43;7.28;;;4.57;;
7057;SDS011;3570;43.080;25.628;2022-07-29T08:38:27;4.90;;;4.47;;
7057;SDS011;3570;43.080;25.628;2022-07-29T08:41:11;4.40;;;4.00;;
7057;SDS011;3570;43.080;25.628;2022-07-29T08:43:55;4.38;;;3.65;;
7057;SDS011;3570;43.080;25.628;2022-07-29T08:46:39;6.95;;;3.90;;
7057;SDS011;3570;43.080;25.628;2022-07-29T08:49:23;4.57;;;4.18;;
7057;SDS011;3570;43.080;25.628;2022-07-29T08:52:10;9.27;;;4.50;;
7057;SDS011;3570;43.080;25.628;2022-07-29T08:54:55;6.40;;;4.38;;
7057;SDS011;3570;43.080;25.628;2022-07-29T08:57:39;7.53;;;4.63;;
7057;SDS011;3570;43.080;25.628;2022-07-29T09:00:24;5.00;;;4.22;;
7057;SDS011;3570;43.080;25.628;2022-07-29T09:03:09;6.22;;;3.35;;
7057;SDS011;3570;43.080;25.628;2022-07-29T09:05:58;6.60;;;3.47;;
7057;SDS011;3570;43.080;25.628;2022-07-29T09:08:42;4.93;;;3.45;;
7057;SDS011;3570;43.080;25.628;2022-07-29T09:11:27;6.82;;;3.72;;
7057;SDS011;3570;43.080;25.628;2022-07-29T09:14:12;7.40;;;3.55;;
7057;SDS011;3570;43.080;25.628;2022-07-29T09:16:57;4.20;;;3.53;;
7057;SDS011;3570;43.080;25.628;2022-07-29T09:19:41;6.65;;;3.50;;
7057;SDS011;3570;43.080;25.628;2022-07-29T09:22:28;4.85;;;3.38;;
7057;SDS011;3570;43.080;25.628;2022-07-29T09:25:14;3.35;;;3.05;;
7057;SDS011;3570;43.080;25.628;2022-07-29T09:28:16;5.20;;;3.60;;
7057;SDS011;3570;43.080;25.628;2022-07-29T09:31:01;4.47;;;4.05;;
7057;SDS011;3570;43.080;25.628;2022-07-29T09:33:46;4.20;;;3.20;;
7057;SDS011;3570;43.080;25.628;2022-07-29T09:36:30;6.13;;;3.30;;
7057;SDS011;3570;43.080;25.628;2022-07-29T09:39:15;4.00;;;3.70;;
7057;SDS011;3570;43.080;25.628;2022-07-29T09:42:10;3.78;;;3.40;;
7057;SDS011;3570;43.080;25.628;2022-07-29T09:44:54;4.22;;;3.00;;
7057;SDS011;3570;43.080;25.628;2022-07-29T09:47:42;3.90;;;3.60;;
7057;SDS011;3570;43.080;25.628;2022-07-29T09:50:39;5.65;;;3.83;;
7057;SDS011;3570;43.080;25.628;2022-07-29T09:56:16;3.00;;;2.70;;
7057;SDS011;3570;43.080;25.628;2022-07-29T09:59:05;3.33;;;3.03;;
7057;SDS011;3570;43.080;25.628;2022-07-29T10:01:50;5.82;;;3.28;;
7057;SDS011;3570;43.080;25.628;2022-07-29T10:04:38;5.97;;;3.60;;
7057;SDS011;3570;43.080;25.628;2022-07-29T10:07:26;3.55;;;2.85;;
7057;SDS011;3570;43.080;25.628;2022-07-29T10:10:18;5.25;;;3.20;;
7057;SDS011;3570;43.080;25.628;2022-07-29T10:13:08;3.15;;;2.90;;
7057;SDS011;3570;43.080;25.628;2022-07-29T10:15:53;2.70;;;2.50;;
7057;SDS011;3570;43.080;25.628;2022-07-29T10:18:38;5.05;;;3.75;;
7057;SDS011;3570;43.080;25.628;2022-07-29T10:21:23;8.00;;;4.80;;
7057;SDS011;3570;43.080;25.628;2022-07-29T10:24:07;4.00;;;3.70;;
7057;SDS011;3570;43.080;25.628;2022-07-29T10:26:56;3.80;;;3.40;;
7057;SDS011;3570;43.080;25.628;2022-07-29T10:29:41;4.95;;;4.32;;
7057;SDS011;3570;43.080;25.628;2022-07-29T10:35:27;4.63;;;4.32;;
7057;SDS011;3570;43.080;25.628;2022-07-29T10:41:23;4.72;;;3.80;;
7057;SDS011;3570;43.080;25.628;2022-07-29T10:44:21;5.18;;;3.47;;
7057;SDS011;3570;43.080;25.628;2022-07-29T10:47:07;3.53;;;3.22;;
7057;SDS011;3570;43.080;25.628;2022-07-29T10:49:58;3.30;;;2.90;;
7057;SDS011;3570;43.080;25.628;2022-07-29T10:55:38;3.85;;;3.55;;
7057;SDS011;3570;43.080;25.628;2022-07-29T10:58:28;8.95;;;4.00;;
7057;SDS011;3570;43.080;25.628;2022-07-29T11:01:27;3.45;;;3.15;;
7057;SDS011;3570;43.080;25.628;2022-07-29T11:04:13;3.40;;;3.10;;
7057;SDS011;3570;43.080;25.628;2022-07-29T11:09:42;7.10;;;3.92;;
7057;SDS011;3570;43.080;25.628;2022-07-29T11:15:22;3.63;;;2.90;;
7057;SDS011;3570;43.080;25.628;2022-07-29T11:18:07;3.20;;;2.88;;
7057;SDS011;3570;43.080;25.628;2022-07-29T11:20:52;5.85;;;3.38;;
7057;SDS011;3570;43.080;25.628;2022-07-29T11:23:39;3.67;;;3.33;;
7057;SDS011;3570;43.080;25.628;2022-07-29T11:26:25;5.25;;;3.70;;
7057;SDS011;3570;43.080;25.628;2022-07-29T11:29:20;3.60;;;3.30;;
7057;SDS011;3570;43.080;25.628;2022-07-29T11:32:12;5.60;;;3.15;;
7057;SDS011;3570;43.080;25.628;2022-07-29T11:35:16;7.80;;;3.20;;
7057;SDS011;3570;43.080;25.628;2022-07-29T11:41:28;3.75;;;3.40;;
7057;SDS011;3570;43.080;25.628;2022-07-29T11:44:13;4.30;;;3.83;;
7057;SDS011;3570;43.080;25.628;2022-07-29T11:46:58;4.75;;;4.28;;
7057;SDS011;3570;43.080;25.628;2022-07-29T11:49:43;4.10;;;3.80;;
7057;SDS011;3570;43.080;25.628;2022-07-29T11:52:33;9.88;;;3.50;;
7057;SDS011;3570;43.080;25.628;2022-07-29T11:55:28;3.80;;;3.50;;
7057;SDS011;3570;43.080;25.628;2022-07-29T11:58:14;4.28;;;3.92;;
7057;SDS011;3570;43.080;25.628;2022-07-29T12:01:06;6.10;;;3.70;;
7057;SDS011;3570;43.080;25.628;2022-07-29T12:03:57;6.45;;;3.50;;
7057;SDS011;3570;43.080;25.628;2022-07-29T12:06:50;5.68;;;2.88;;
7057;SDS011;3570;43.080;25.628;2022-07-29T12:09:34;3.63;;;3.10;;
7057;SDS011;3570;43.080;25.628;2022-07-29T12:12:20;3.88;;;3.47;;
7057;SDS011;3570;43.080;25.628;2022-07-29T12:15:12;3.90;;;3.15;;
7057;SDS011;3570;43.080;25.628;2022-07-29T12:17:57;5.10;;;3.17;;
7057;SDS011;3570;43.080;25.628;2022-07-29T12:20:41;5.18;;;3.40;;
7057;SDS011;3570;43.080;25.628;2022-07-29T12:23:26;3.55;;;3.25;;
7057;SDS011;3570;43.080;25.628;2022-07-29T12:26:10;5.22;;;3.30;;
7057;SDS011;3570;43.080;25.628;2022-07-29T12:28:53;5.38;;;3.35;;
7057;SDS011;3570;43.080;25.628;2022-07-29T12:31:38;4.20;;;3.80;;
7057;SDS011;3570;43.080;25.628;2022-07-29T12:34:23;4.60;;;3.85;;
7057;SDS011;3570;43.080;25.628;2022-07-29T12:37:10;4.53;;;4.10;;
7057;SDS011;3570;43.080;25.628;2022-07-29T12:39:54;4.45;;;3.22;;
7057;SDS011;3570;43.080;25.628;2022-07-29T12:42:39;4.05;;;3.60;;
7057;SDS011;3570;43.080;25.628;2022-07-29T12:45:29;4.20;;;3.50;;
7057;SDS011;3570;43.080;25.628;2022-07-29T12:48:14;3.33;;;3.10;;
7057;SDS011;3570;43.080;25.628;2022-07-29T12:51:00;4.85;;;3.92;;
7057;SDS011;3570;43.080;25.628;2022-07-29T12:54:01;3.60;;;3.30;;
7057;SDS011;3570;43.080;25.628;2022-07-29T12:56:59;4.32;;;3.33;;
7057;SDS011;3570;43.080;25.628;2022-07-29T12:59:44;4.95;;;3.35;;
7057;SDS011;3570;43.080;25.628;2022-07-29T13:02:28;5.35;;;3.70;;
7057;SDS011;3570;43.080;25.628;2022-07-29T13:05:11;5.72;;;3.67;;
7057;SDS011;3570;43.080;25.628;2022-07-29T13:07:56;3.60;;;3.22;;
7057;SDS011;3570;43.080;25.628;2022-07-29T13:10:57;3.75;;;3.10;;
7057;SDS011;3570;43.080;25.628;2022-07-29T13:13:50;5.90;;;3.20;;
7057;SDS011;3570;43.080;25.628;2022-07-29T13:16:35;5.45;;;3.85;;
7057;SDS011;3570;43.080;25.628;2022-07-29T13:19:44;8.73;;;3.60;;
7057;SDS011;3570;43.080;25.628;2022-07-29T13:22:30;4.53;;;3.50;;
7057;SDS011;3570;43.080;25.628;2022-07-29T13:25:14;4.28;;;3.28;;
7057;SDS011;3570;43.080;25.628;2022-07-29T13:28:07;5.32;;;3.78;;
7057;SDS011;3570;43.080;25.628;2022-07-29T13:30:51;10.18;;;3.97;;
7057;SDS011;3570;43.080;25.628;2022-07-29T13:33:35;7.78;;;4.15;;
7057;SDS011;3570;43.080;25.628;2022-07-29T13:36:19;4.95;;;3.20;;
7057;SDS011;3570;43.080;25.628;2022-07-29T13:39:04;3.53;;;2.65;;
7057;SDS011;3570;43.080;25.628;2022-07-29T13:41:48;3.83;;;3.45;;
7057;SDS011;3570;43.080;25.628;2022-07-29T13:44:33;3.50;;;3.17;;
7057;SDS011;3570;43.080;25.628;2022-07-29T13:47:17;4.85;;;3.50;;
7057;SDS011;3570;43.080;25.628;2022-07-29T13:50:03;5.50;;;3.47;;
7057;SDS011;3570;43.080;25.628;2022-07-29T13:52:49;3.63;;;3.33;;
7057;SDS011;3570;43.080;25.628;2022-07-29T13:55:34;4.15;;;3.10;;
7057;SDS011;3570;43.080;25.628;2022-07-29T13:58:18;3.97;;;3.50;;
7057;SDS011;3570;43.080;25.628;2022-07-29T14:01:02;4.35;;;3.35;;
7057;SDS011;3570;43.080;25.628;2022-07-29T14:03:46;3.85;;;3.30;;
7057;SDS011;3570;43.080;25.628;2022-07-29T14:06:30;5.10;;;3.17;;
7057;SDS011;3570;43.080;25.628;2022-07-29T14:09:14;4.30;;;3.65;;
7057;SDS011;3570;43.080;25.628;2022-07-29T14:11:58;4.47;;;4.07;;
7057;SDS011;3570;43.080;25.628;2022-07-29T14:14:42;9.23;;;4.05;;
7057;SDS011;3570;43.080;25.628;2022-07-29T14:17:27;6.07;;;3.92;;
7057;SDS011;3570;43.080;25.628;2022-07-29T14:20:11;5.45;;;3.40;;
7057;SDS011;3570;43.080;25.628;2022-07-29T14:22:55;4.20;;;3.30;;
7057;SDS011;3570;43.080;25.628;2022-07-29T14:25:39;6.70;;;3.10;;
7057;SDS011;3570;43.080;25.628;2022-07-29T14:28:24;4.65;;;3.75;;
7057;SDS011;3570;43.080;25.628;2022-07-29T14:31:08;6.50;;;3.97;;
7057;SDS011;3570;43.080;25.628;2022-07-29T14:33:52;5.30;;;3.85;;
7057;SDS011;3570;43.080;25.628;2022-07-29T14:36:36;5.05;;;3.35;;
7057;SDS011;3570;43.080;25.628;2022-07-29T14:39:21;4.55;;;4.05;;
7057;SDS011;3570;43.080;25.628;2022-07-29T14:42:06;5.22;;;4.03;;
7057;SDS011;3570;43.080;25.628;2022-07-29T14:44:51;4.93;;;3.83;;
7057;SDS011;3570;43.080;25.628;2022-07-29T14:47:37;5.55;;;3.50;;
7057;SDS011;3570;43.080;25.628;2022-07-29T14:50:22;5.68;;;3.22;;
7057;SDS011;3570;43.080;25.628;2022-07-29T14:53:06;3.50;;;3.20;;
7057;SDS011;3570;43.080;25.628;2022-07-29T14:55:50;3.88;;;3.47;;
7057;SDS011;3570;43.080;25.628;2022-07-29T14:58:35;3.65;;;3.38;;
7057;SDS011;3570;43.080;25.628;2022-07-29T15:01:18;4.47;;;3.35;;
7057;SDS011;3570;43.080;25.628;2022-07-29T15:04:03;4.97;;;3.28;;
7057;SDS011;3570;43.080;25.628;2022-07-29T15:06:47;5.47;;;3.72;;
7057;SDS011;3570;43.080;25.628;2022-07-29T15:09:31;6.00;;;3.53;;
7057;SDS011;3570;43.080;25.628;2022-07-29T15:12:15;5.50;;;3.60;;
7057;SDS011;3570;43.080;25.628;2022-07-29T15:15:00;4.70;;;3.53;;
7057;SDS011;3570;43.080;25.628;2022-07-29T15:17:44;5.55;;;3.97;;
7057;SDS011;3570;43.080;25.628;2022-07-29T15:20:29;6.22;;;3.67;;
7057;SDS011;3570;43.080;25.628;2022-07-29T15:23:13;5.53;;;3.83;;
7057;SDS011;3570;43.080;25.628;2022-07-29T15:25:57;5.10;;;3.80;;
7057;SDS011;3570;43.080;25.628;2022-07-29T15:28:41;5.55;;;4.10;;
7057;SDS011;3570;43.080;25.628;2022-07-29T15:31:25;5.65;;;3.50;;
7057;SDS011;3570;43.080;25.628;2022-07-29T15:34:09;4.50;;;3.67;;
7057;SDS011;3570;43.080;25.628;2022-07-29T15:36:53;6.28;;;3.58;;
7057;SDS011;3570;43.080;25.628;2022-07-29T15:39:37;10.57;;;4.13;;
7057;SDS011;3570;43.080;25.628;2022-07-29T15:42:21;4.72;;;3.92;;
7057;SDS011;3570;43.080;25.628;2022-07-29T15:45:05;7.47;;;3.70;;
7057;SDS011;3570;43.080;25.628;2022-07-29T15:47:50;3.97;;;3.58;;
7057;SDS011;3570;43.080;25.628;2022-07-29T15:50:33;5.25;;;3.70;;
7057;SDS011;3570;43.080;25.628;2022-07-29T15:53:18;4.05;;;3.70;;
7057;SDS011;3570;43.080;25.628;2022-07-29T15:56:02;4.75;;;3.65;;
7057;SDS011;3570;43.080;25.628;2022-07-29T15:58:47;3.83;;;3.53;;
7057;SDS011;3570;43.080;25.628;2022-07-29T16:01:31;12.43;;;4.18;;
7057;SDS011;3570;43.080;25.628;2022-07-29T16:04:15;7.55;;;4.20;;
7057;SDS011;3570;43.080;25.628;2022-07-29T16:07:00;5.78;;;3.80;;
7057;SDS011;3570;43.080;25.628;2022-07-29T16:09:44;7.95;;;3.53;;
7057;SDS011;3570;43.080;25.628;2022-07-29T16:12:28;5.43;;;3.95;;
7057;SDS011;3570;43.080;25.628;2022-07-29T16:15:12;7.43;;;4.25;;
7057;SDS011;3570;43.080;25.628;2022-07-29T16:17:55;6.38;;;3.95;;
7057;SDS011;3570;43.080;25.628;2022-07-29T16:20:40;8.45;;;4.13;;
7057;SDS011;3570;43.080;25.628;2022-07-29T16:23:24;4.30;;;3.90;;
7057;SDS011;3570;43.080;25.628;2022-07-29T16:26:08;7.63;;;4.70;;
7057;SDS011;3570;43.080;25.628;2022-07-29T16:28:52;6.32;;;4.18;;
7057;SDS011;3570;43.080;25.628;2022-07-29T16:31:36;6.97;;;4.60;;
7057;SDS011;3570;43.080;25.628;2022-07-29T16:34:20;6.13;;;4.47;;
7057;SDS011;3570;43.080;25.628;2022-07-29T16:37:04;8.00;;;4.47;;
7057;SDS011;3570;43.080;25.628;2022-07-29T16:39:48;8.07;;;4.10;;
7057;SDS011;3570;43.080;25.628;2022-07-29T16:42:33;9.00;;;4.22;;
7057;SDS011;3570;43.080;25.628;2022-07-29T16:45:17;6.45;;;3.92;;
7057;SDS011;3570;43.080;25.628;2022-07-29T16:48:01;6.75;;;4.22;;
7057;SDS011;3570;43.080;25.628;2022-07-29T16:50:46;7.82;;;3.80;;
7057;SDS011;3570;43.080;25.628;2022-07-29T16:53:30;4.68;;;3.67;;
7057;SDS011;3570;43.080;25.628;2022-07-29T16:56:14;3.85;;;3.45;;
7057;SDS011;3570;43.080;25.628;2022-07-29T16:58:58;6.55;;;4.13;;
7057;SDS011;3570;43.080;25.628;2022-07-29T17:01:42;4.78;;;4.25;;
7057;SDS011;3570;43.080;25.628;2022-07-29T17:04:26;4.80;;;4.25;;
7057;SDS011;3570;43.080;25.628;2022-07-29T17:07:12;7.68;;;4.38;;
7057;SDS011;3570;43.080;25.628;2022-07-29T17:09:56;8.45;;;4.00;;
7057;SDS011;3570;43.080;25.628;2022-07-29T17:12:41;7.45;;;4.13;;
7057;SDS011;3570;43.080;25.628;2022-07-29T17:15:25;5.78;;;4.47;;
7057;SDS011;3570;43.080;25.628;2022-07-29T17:18:09;4.57;;;4.18;;
7057;SDS011;3570;43.080;25.628;2022-07-29T17:20:53;6.90;;;4.20;;
7057;SDS011;3570;43.080;25.628;2022-07-29T17:23:37;7.55;;;4.40;;
7057;SDS011;3570;43.080;25.628;2022-07-29T17:26:21;7.72;;;4.57;;